KCAR/CAR METAR and TAF weather

Enter ICAO airport designator
Station Type Date Time Source
KCAR METAR 2018/01/16 08:54 UTC NOAA

KCAR 160854Z AUTO 35007KT 10SM OVC017 M18/M21 A3050 RMK AO2 SLP347 T11781206 58023


Station Type Date Time Source
KCAR Decoded METAR 2018/01/16 08:54 UTC NOAA

CARIBOU MUNICIPAL AIRPORT, ME, United States (KCAR) 46-52N 68-01W 191M
Jan 16, 2018 - 03:54 AM EST / 2018.01.16 0854 UTC
Wind: from the N (350 degrees) at 8 MPH (7 KT):0
Visibility: 10 mile(s):0
Sky conditions: overcast
Temperature: -0.0 F (-17.8 C)
Windchill: -14 F (-26 C):2
Dew Point: -5.1 F (-20.6 C)
Relative Humidity: 78%
Pressure (altimeter): 30.5 in. Hg (1032 hPa)
Pressure tendency: 0.07 inches (2.3 hPa) lower than three hours ago
ob: KCAR 160854Z AUTO 35007KT 10SM OVC017 M18/M21 A3050 RMK AO2 SLP347 T11781206 58023
cycle: 9

Station Type Date Time Source
KCAR TAF 2018/01/16 06:57 UTC NOAA

TAF KCAR 160555Z 1606/1706 01004KT P6SM VCSH OVC025
FM161300 VRB03KT P6SM SCT025 BKN120
FM170200 VRB03KT P6SM SCT020 OVC040


Example: see airport list